createdAt,value
2022-11-25T00:00:33.592Z,98.60
2022-11-25T00:03:00.213Z,98.22
2022-11-25T00:05:28.390Z,98.18
2022-11-25T00:07:54.911Z,97.55
2022-11-25T00:10:21.544Z,97.73
2022-11-25T00:12:47.963Z,97.70
2022-11-25T00:15:14.623Z,98.04
2022-11-25T00:17:41.066Z,98.34
2022-11-25T00:20:07.897Z,98.94
2022-11-25T00:22:34.337Z,99.26
2022-11-25T00:25:00.773Z,100.00
2022-11-25T00:27:27.308Z,100.00
2022-11-25T00:29:53.721Z,100.00
2022-11-25T00:32:20.144Z,99.81
2022-11-25T00:34:46.648Z,99.92
2022-11-25T00:37:13.248Z,99.68
2022-11-25T00:39:39.855Z,98.97
2022-11-25T00:42:25.172Z,98.50
2022-11-25T00:44:52.448Z,99.00
2022-11-25T00:47:19.905Z,99.22
2022-11-25T00:49:47.720Z,99.33
2022-11-25T00:52:18.490Z,99.40
2022-11-25T00:54:50.621Z,100.00
2022-11-25T00:57:18.644Z,100.00
2022-11-25T00:59:45.228Z,100.00
2022-11-25T01:02:12.316Z,99.38
2022-11-25T01:04:38.945Z,99.80
2022-11-25T01:07:05.467Z,99.58
2022-11-25T01:09:34.257Z,99.25
2022-11-25T01:12:03.309Z,98.76
2022-11-25T01:14:30.564Z,98.03
2022-11-25T01:16:57.119Z,97.42
2022-11-25T01:19:23.817Z,97.65
2022-11-25T01:21:50.313Z,97.75
2022-11-25T01:24:16.793Z,98.10
2022-11-25T01:26:43.839Z,97.47
2022-11-25T01:29:15.278Z,97.86
2022-11-25T01:31:41.814Z,98.30
2022-11-25T01:34:18.653Z,98.05
2022-11-25T01:36:45.434Z,99.37
2022-11-25T01:39:32.772Z,100.00
2022-11-25T01:42:00.194Z,100.00
2022-11-25T01:44:27.868Z,99.91
2022-11-25T01:46:57.178Z,99.51
2022-11-25T01:49:42.544Z,99.37
2022-11-25T01:52:16.685Z,99.23
2022-11-25T01:54:51.604Z,95.75
2022-11-25T01:57:21.871Z,92.55
2022-11-25T01:59:51.736Z,96.49
2022-11-25T02:02:19.248Z,97.44
2022-11-25T02:04:46.577Z,98.24
2022-11-25T02:07:15.403Z,98.37
2022-11-25T02:09:43.689Z,98.24
2022-11-25T02:12:10.523Z,98.75
2022-11-25T02:14:37.362Z,98.26
2022-11-25T02:17:04.098Z,94.90
2022-11-25T02:19:57.070Z,91.69
2022-11-25T02:22:43.551Z,95.41
2022-11-25T02:25:14.814Z,96.34
2022-11-25T02:27:43.044Z,97.20
2022-11-25T02:30:09.632Z,97.64
2022-11-25T02:32:36.179Z,98.03
2022-11-25T02:35:02.636Z,98.60
2022-11-25T02:37:29.333Z,99.47
2022-11-25T02:39:55.879Z,98.75
2022-11-25T02:42:22.950Z,98.20
2022-11-25T02:44:49.644Z,98.58
2022-11-25T02:47:16.419Z,98.60
2022-11-25T02:49:45.234Z,98.31
2022-11-25T02:52:11.861Z,100.00
2022-11-25T02:54:38.418Z,99.96
2022-11-25T02:57:05.046Z,98.97
2022-11-25T02:59:33.897Z,97.94
2022-11-25T03:02:00.438Z,97.92
2022-11-25T03:04:27.373Z,98.14
2022-11-25T03:06:53.800Z,97.43
2022-11-25T03:09:20.247Z,97.44
2022-11-25T03:12:05.595Z,97.57
2022-11-25T03:14:32.256Z,97.63
2022-11-25T03:16:58.777Z,97.25
2022-11-25T03:19:26.711Z,96.77
2022-11-25T03:21:53.186Z,96.75
2022-11-25T03:24:19.631Z,96.33
2022-11-25T03:26:48.267Z,96.59
2022-11-25T03:29:14.754Z,97.20
2022-11-25T03:31:41.405Z,97.03
2022-11-25T03:34:10.952Z,96.90
2022-11-25T03:36:37.533Z,97.23
2022-11-25T03:39:04.117Z,96.68
2022-11-25T03:41:30.580Z,97.02
2022-11-25T03:43:57.389Z,96.63
2022-11-25T03:46:24.135Z,96.04
2022-11-25T03:48:52.514Z,96.22
2022-11-25T03:51:19.147Z,96.13
2022-11-25T03:53:45.629Z,96.04
2022-11-25T03:56:14.417Z,96.31
2022-11-25T03:58:40.945Z,96.80
2022-11-25T04:01:09.865Z,96.71
2022-11-25T04:03:36.560Z,96.40
2022-11-25T04:06:04.036Z,95.70
2022-11-25T04:08:30.953Z,96.03
2022-11-25T04:10:58.232Z,96.08
2022-11-25T04:13:28.456Z,95.95
2022-11-25T04:15:55.100Z,96.33
2022-11-25T04:18:21.870Z,95.89
2022-11-25T04:20:52.277Z,95.83
2022-11-25T04:23:18.780Z,95.95
2022-11-25T04:26:06.996Z,96.09
2022-11-25T04:28:37.420Z,96.45
2022-11-25T04:31:08.041Z,96.21
2022-11-25T04:33:37.352Z,95.94
2022-11-25T04:36:04.001Z,96.61
2022-11-25T04:38:30.809Z,97.68
2022-11-25T04:40:58.252Z,96.86
2022-11-25T04:43:24.844Z,96.93
2022-11-25T04:46:13.973Z,96.85
2022-11-25T04:48:42.928Z,96.19
2022-11-25T04:51:09.500Z,96.00
2022-11-25T04:53:36.046Z,96.03
2022-11-25T04:56:02.633Z,96.96
2022-11-25T04:58:53.207Z,97.82
2022-11-25T05:01:19.908Z,97.29
2022-11-25T05:03:55.938Z,97.02
2022-11-25T05:06:25.093Z,97.54
2022-11-25T05:08:52.056Z,97.23
2022-11-25T05:11:19.871Z,97.32
2022-11-25T05:13:46.624Z,97.21
2022-11-25T05:16:13.127Z,96.86
2022-11-25T05:18:40.001Z,96.50
2022-11-25T05:21:07.566Z,96.50
2022-11-25T05:23:38.273Z,95.63
2022-11-25T05:26:04.985Z,97.10
2022-11-25T05:28:38.104Z,96.77
2022-11-25T05:31:04.783Z,96.45
2022-11-25T05:33:32.137Z,96.59
2022-11-25T05:35:59.936Z,96.33
2022-11-25T05:38:31.759Z,95.80
2022-11-25T05:41:03.114Z,95.78
2022-11-25T05:43:30.212Z,95.93
2022-11-25T05:45:57.281Z,96.50
2022-11-25T05:48:24.577Z,96.80
2022-11-25T05:50:51.316Z,97.42
2022-11-25T05:53:21.747Z,96.53
2022-11-25T05:55:54.082Z,96.44
2022-11-25T05:58:29.456Z,96.14
2022-11-25T06:00:59.063Z,96.01
2022-11-25T06:03:27.373Z,96.28
2022-11-25T06:05:56.033Z,96.23
2022-11-25T06:08:22.615Z,96.25
2022-11-25T06:10:49.109Z,96.18
2022-11-25T06:13:15.564Z,96.46
2022-11-25T06:15:42.927Z,96.30
2022-11-25T06:18:10.950Z,95.63
2022-11-25T06:20:38.075Z,95.88
2022-11-25T06:23:04.845Z,96.24
2022-11-25T06:25:35.375Z,96.59
2022-11-25T06:28:18.576Z,96.02
2022-11-25T06:30:48.454Z,96.74
2022-11-25T06:33:22.590Z,95.92
2022-11-25T06:35:50.039Z,96.86
2022-11-25T06:38:16.452Z,97.07
2022-11-25T06:40:42.884Z,97.37
2022-11-25T06:43:09.492Z,97.79
2022-11-25T06:45:35.956Z,96.30
2022-11-25T06:48:02.405Z,95.43
2022-11-25T06:50:28.854Z,96.41
2022-11-25T06:52:55.373Z,94.78
2022-11-25T06:55:21.836Z,93.88
2022-11-25T06:57:48.449Z,92.85
2022-11-25T07:00:15.087Z,91.99
2022-11-25T07:02:46.632Z,91.68
2022-11-25T07:05:14.938Z,91.81
2022-11-25T07:07:41.378Z,90.85
2022-11-25T07:10:08.203Z,92.54
2022-11-25T07:12:34.825Z,91.68
2022-11-25T07:15:01.288Z,88.24
2022-11-25T07:17:27.703Z,89.15
2022-11-25T07:19:54.188Z,87.29
2022-11-25T07:22:20.822Z,88.47
2022-11-25T07:24:47.403Z,85.01
2022-11-25T07:27:13.861Z,83.85
2022-11-25T07:30:29.030Z,81.97
2022-11-25T07:32:26.736Z,81.42
2022-11-25T07:34:53.225Z,78.00
2022-11-25T07:37:19.703Z,80.96
2022-11-25T07:39:46.197Z,77.86
2022-11-25T07:42:12.637Z,76.27
2022-11-25T07:44:39.064Z,79.93
2022-11-25T07:47:25.366Z,77.81
2022-11-25T07:49:51.824Z,78.17
2022-11-25T07:52:20.097Z,78.12
2022-11-25T07:54:46.612Z,72.27
2022-11-25T07:57:13.302Z,70.00
2022-11-25T07:59:41.337Z,72.34
2022-11-25T08:02:09.729Z,70.57
2022-11-25T08:04:37.023Z,74.36
2022-11-25T08:07:03.578Z,72.06
2022-11-25T08:09:29.999Z,72.61
2022-11-25T08:11:56.521Z,69.63
2022-11-25T08:14:23.003Z,71.69
2022-11-25T08:16:49.408Z,68.28
2022-11-25T08:19:17.224Z,70.00
2022-11-25T08:21:44.179Z,69.38
2022-11-25T08:24:20.712Z,71.96
2022-11-25T08:26:47.764Z,71.93
2022-11-25T08:29:15.683Z,73.49
2022-11-25T08:31:43.038Z,74.80
2022-11-25T08:34:11.984Z,71.81
2022-11-25T08:36:39.798Z,71.28
2022-11-25T08:39:29.069Z,71.14
2022-11-25T08:41:54.832Z,70.77
2022-11-25T08:44:21.247Z,70.80
2022-11-25T08:46:47.849Z,69.53
2022-11-25T08:49:17.125Z,70.67
2022-11-25T08:51:43.793Z,68.37
2022-11-25T08:54:10.217Z,72.31
2022-11-25T08:56:36.709Z,68.61
2022-11-25T08:59:03.537Z,66.59
2022-11-25T09:01:30.352Z,65.50
2022-11-25T09:03:57.681Z,67.54
2022-11-25T09:06:25.681Z,63.56
2022-11-25T09:08:55.015Z,62.35
2022-11-25T09:11:21.496Z,62.07
2022-11-25T09:13:48.002Z,67.05
2022-11-25T09:16:15.244Z,66.99
2022-11-25T09:18:41.732Z,64.90
2022-11-25T09:21:10.187Z,62.66
2022-11-25T09:23:38.498Z,61.32
2022-11-25T09:26:05.721Z,59.45
2022-11-25T09:28:32.705Z,59.98
2022-11-25T09:30:59.183Z,60.70
2022-11-25T09:33:25.723Z,57.28
2022-11-25T09:35:52.188Z,57.34
2022-11-25T09:38:18.645Z,59.61
2022-11-25T09:40:48.076Z,60.48
2022-11-25T09:43:48.607Z,61.12
2022-11-25T09:46:53.729Z,63.05
2022-11-25T09:49:36.906Z,57.10
2022-11-25T09:52:15.710Z,56.68
2022-11-25T09:54:48.698Z,59.59
2022-11-25T09:57:27.049Z,58.07
2022-11-25T10:00:02.394Z,57.47
2022-11-25T10:02:57.913Z,57.10
2022-11-25T10:05:29.407Z,59.82
2022-11-25T10:07:59.371Z,56.78
2022-11-25T10:10:27.362Z,59.18
2022-11-25T10:12:56.719Z,55.91
2022-11-25T10:15:44.225Z,55.35
2022-11-25T10:18:17.937Z,54.27
2022-11-25T10:20:44.537Z,54.72
2022-11-25T10:23:28.459Z,52.33
2022-11-25T10:25:57.451Z,52.52
2022-11-25T10:28:25.720Z,52.58
2022-11-25T10:30:55.269Z,52.80
2022-11-25T10:33:26.409Z,52.72
2022-11-25T10:35:55.290Z,50.94
2022-11-25T10:38:36.556Z,49.64
2022-11-25T10:41:03.805Z,49.78
2022-11-25T10:43:32.049Z,53.24
2022-11-25T10:45:58.612Z,52.29
2022-11-25T10:48:44.537Z,49.93
2022-11-25T10:51:14.221Z,48.87
2022-11-25T10:53:40.633Z,49.24
2022-11-25T10:56:11.776Z,50.03
2022-11-25T10:58:39.951Z,46.79
2022-11-25T11:01:13.005Z,46.98
2022-11-25T11:03:39.722Z,48.86
2022-11-25T11:06:06.147Z,47.37
2022-11-25T11:08:40.733Z,46.60
2022-11-25T11:11:11.229Z,46.24
2022-11-25T11:13:37.734Z,45.89
2022-11-25T11:16:04.521Z,46.68
2022-11-25T11:18:37.174Z,46.25
2022-11-25T11:21:04.983Z,46.34
2022-11-25T11:23:31.531Z,45.65
2022-11-25T11:25:58.098Z,48.10
2022-11-25T11:28:37.105Z,48.86
2022-11-25T11:31:15.907Z,50.10
2022-11-25T11:33:48.641Z,48.50
2022-11-25T11:36:28.329Z,48.50
2022-11-25T11:39:13.290Z,49.99
2022-11-25T11:41:44.053Z,49.58
2022-11-25T11:44:29.225Z,49.45
2022-11-25T11:47:04.818Z,47.83
2022-11-25T11:49:31.416Z,46.64
2022-11-25T11:51:57.841Z,47.91
2022-11-25T11:54:35.660Z,47.22
2022-11-25T11:57:04.701Z,43.66
2022-11-25T11:59:31.113Z,42.35
2022-11-25T12:02:16.552Z,42.62
2022-11-25T12:04:51.183Z,42.68
2022-11-25T12:07:17.635Z,43.09
2022-11-25T12:09:48.064Z,43.24
2022-11-25T12:12:17.206Z,44.75
2022-11-25T12:14:47.012Z,43.73
2022-11-25T12:17:16.953Z,42.55
2022-11-25T12:19:52.241Z,41.84
2022-11-25T12:22:27.240Z,43.58
2022-11-25T12:25:04.163Z,42.42
2022-11-25T12:27:42.573Z,43.01
2022-11-25T12:30:13.480Z,41.81
2022-11-25T12:32:58.747Z,43.14
2022-11-25T12:35:31.219Z,43.63
2022-11-25T12:38:06.816Z,43.76
2022-11-25T12:40:41.169Z,44.07
2022-11-25T12:43:22.991Z,44.05
2022-11-25T12:45:51.856Z,45.78
2022-11-25T12:48:21.546Z,44.53
2022-11-25T12:50:51.289Z,45.07
2022-11-25T12:53:38.636Z,45.57
2022-11-25T12:56:09.918Z,46.15
2022-11-25T12:58:36.463Z,45.49
2022-11-25T13:01:21.725Z,45.09
2022-11-25T13:03:48.187Z,44.40
2022-11-25T13:06:33.800Z,44.76
2022-11-25T13:09:09.608Z,45.07
2022-11-25T13:11:46.740Z,46.86
2022-11-25T13:14:40.750Z,45.77
2022-11-25T13:17:13.655Z,44.65
2022-11-25T13:19:40.477Z,42.28
2022-11-25T13:22:23.489Z,42.41
2022-11-25T13:24:50.445Z,42.87
2022-11-25T13:27:29.985Z,44.34
2022-11-25T13:29:56.618Z,45.01
2022-11-25T13:32:28.840Z,44.72
2022-11-25T13:35:13.897Z,47.15
2022-11-25T13:37:40.784Z,47.35
2022-11-25T13:40:19.569Z,49.15
2022-11-25T13:42:46.210Z,50.95
2022-11-25T13:45:33.379Z,52.92
2022-11-25T13:48:29.109Z,53.06
2022-11-25T13:51:14.415Z,57.08
2022-11-25T13:53:41.275Z,59.24
2022-11-25T13:56:28.537Z,62.15
2022-11-25T13:59:10.057Z,62.05
2022-11-25T14:01:38.041Z,64.34
2022-11-25T14:04:06.812Z,63.67
2022-11-25T14:06:39.310Z,62.75
2022-11-25T14:09:05.728Z,62.42
2022-11-25T14:11:32.448Z,60.73
2022-11-25T14:14:15.916Z,61.43
2022-11-25T14:16:54.629Z,62.28
2022-11-25T14:19:55.178Z,60.46
2022-11-25T14:22:36.979Z,61.59
2022-11-25T14:25:24.980Z,64.02
2022-11-25T14:27:57.292Z,65.48
2022-11-25T14:30:26.404Z,67.64
2022-11-25T14:33:02.121Z,71.88
2022-11-25T14:35:32.593Z,73.35
2022-11-25T14:38:25.567Z,75.72
2022-11-25T14:40:58.201Z,78.01
2022-11-25T14:43:25.793Z,79.89
2022-11-25T14:46:11.210Z,80.53
2022-11-25T14:48:38.464Z,78.90
2022-11-25T14:51:09.777Z,78.53
2022-11-25T14:53:47.363Z,78.36
2022-11-25T14:56:15.649Z,77.85
2022-11-25T14:58:46.225Z,77.00
2022-11-25T15:01:20.294Z,78.50
2022-11-25T15:03:48.003Z,79.02
2022-11-25T15:06:15.714Z,79.63
2022-11-25T15:08:43.756Z,77.74
2022-11-25T15:11:13.525Z,77.61
2022-11-25T15:13:44.468Z,79.21
2022-11-25T15:16:18.691Z,80.71
2022-11-25T15:18:56.010Z,82.42
2022-11-25T15:21:30.413Z,81.52
2022-11-25T15:23:56.952Z,80.90
2022-11-25T15:26:24.822Z,80.46
2022-11-25T15:28:55.840Z,82.29
2022-11-25T15:31:30.051Z,83.97
2022-11-25T15:33:58.460Z,83.46
2022-11-25T15:36:25.796Z,85.04
2022-11-25T15:38:52.674Z,84.57
2022-11-25T15:41:28.309Z,84.17
2022-11-25T15:43:56.505Z,84.26
2022-11-25T15:46:24.052Z,84.98
2022-11-25T15:48:52.018Z,84.04
2022-11-25T15:51:29.254Z,83.74
2022-11-25T15:54:01.927Z,83.78
2022-11-25T15:56:28.833Z,84.33
2022-11-25T15:59:01.320Z,84.95
2022-11-25T16:01:29.858Z,85.38
2022-11-25T16:04:09.555Z,86.51
2022-11-25T16:06:36.006Z,85.50
2022-11-25T16:09:03.917Z,84.66
2022-11-25T16:11:33.626Z,84.51
2022-11-25T16:14:23.988Z,85.40
2022-11-25T16:16:51.032Z,86.02
2022-11-25T16:19:19.316Z,85.51
2022-11-25T16:21:56.694Z,84.95
2022-11-25T16:24:27.731Z,85.54
2022-11-25T16:27:00.774Z,85.98
2022-11-25T16:29:31.501Z,86.67
2022-11-25T16:31:58.509Z,86.18
2022-11-25T16:34:26.301Z,86.55
2022-11-25T16:36:53.549Z,85.67
2022-11-25T16:39:20.683Z,86.90
2022-11-25T16:41:58.462Z,85.98
2022-11-25T16:44:26.103Z,87.36
2022-11-25T16:46:53.312Z,87.07
2022-11-25T16:49:20.394Z,87.37
2022-11-25T16:51:46.951Z,87.07
2022-11-25T16:54:13.430Z,86.93
2022-11-25T16:56:41.196Z,88.38
2022-11-25T16:59:10.015Z,89.53
2022-11-25T17:01:36.519Z,89.33
2022-11-25T17:04:03.007Z,89.27
2022-11-25T17:06:30.422Z,88.54
2022-11-25T17:08:56.896Z,88.92
2022-11-25T17:11:30.763Z,88.92
2022-11-25T17:13:59.090Z,89.00
2022-11-25T17:16:26.836Z,90.00
2022-11-25T17:18:54.842Z,89.14
2022-11-25T17:21:26.696Z,88.54
2022-11-25T17:23:55.326Z,88.12
2022-11-25T17:26:26.085Z,86.97
2022-11-25T17:29:01.782Z,87.88
2022-11-25T17:31:29.842Z,89.73
2022-11-25T17:33:56.330Z,90.71
2022-11-25T17:36:22.911Z,90.56
2022-11-25T17:38:49.417Z,89.82
2022-11-25T17:41:16.977Z,90.71
2022-11-25T17:43:44.452Z,90.50
2022-11-25T17:46:11.818Z,90.06
2022-11-25T17:48:38.852Z,90.38
2022-11-25T17:51:07.573Z,90.21
2022-11-25T17:53:37.835Z,89.45
2022-11-25T17:56:22.997Z,90.38
2022-11-25T17:58:49.819Z,90.80
2022-11-25T18:01:16.328Z,90.81
2022-11-25T18:03:42.828Z,91.34
2022-11-25T18:06:09.334Z,91.16
2022-11-25T18:08:35.868Z,90.85
2022-11-25T18:11:04.149Z,90.66
2022-11-25T18:13:32.697Z,91.57
2022-11-25T18:15:59.149Z,91.21
2022-11-25T18:18:25.817Z,91.08
2022-11-25T18:20:52.653Z,91.82
2022-11-25T18:23:19.735Z,92.14
2022-11-25T18:25:46.507Z,91.25
2022-11-25T18:28:16.711Z,91.71
2022-11-25T18:30:43.389Z,91.45
2022-11-25T18:33:13.448Z,92.01
2022-11-25T18:35:40.616Z,92.79
2022-11-25T18:38:08.824Z,91.88
2022-11-25T18:40:36.876Z,91.61
2022-11-25T18:43:04.453Z,92.23
2022-11-25T18:45:33.098Z,92.39
2022-11-25T18:47:59.727Z,93.10
2022-11-25T18:50:26.858Z,92.41
2022-11-25T18:52:53.333Z,92.42
2022-11-25T18:55:20.992Z,92.94
2022-11-25T18:57:49.078Z,94.20
2022-11-25T19:00:38.550Z,94.01
2022-11-25T19:03:06.538Z,92.65
2022-11-25T19:05:33.348Z,93.43
2022-11-25T19:07:59.983Z,92.93
2022-11-25T19:10:30.706Z,92.48
2022-11-25T19:12:59.212Z,92.87
2022-11-25T19:15:26.397Z,93.14
2022-11-25T19:17:57.539Z,93.20
2022-11-25T19:20:25.892Z,92.81
2022-11-25T19:22:55.576Z,92.43
2022-11-25T19:25:24.999Z,92.25
2022-11-25T19:27:56.467Z,93.14
2022-11-25T19:30:24.421Z,93.09
2022-11-25T19:32:52.316Z,92.57
2022-11-25T19:35:45.217Z,92.92
2022-11-25T19:38:17.522Z,93.71
2022-11-25T19:40:43.992Z,93.78
2022-11-25T19:43:10.474Z,94.04
2022-11-25T19:45:37.344Z,93.07
2022-11-25T19:48:06.699Z,93.57
2022-11-25T19:50:34.433Z,93.83
2022-11-25T19:53:00.898Z,95.13
2022-11-25T19:55:32.247Z,95.20
2022-11-25T19:57:59.106Z,94.66
2022-11-25T20:00:25.686Z,94.81
2022-11-25T20:02:53.612Z,94.56
2022-11-25T20:05:26.432Z,94.96
2022-11-25T20:07:52.946Z,94.72
2022-11-25T20:10:24.225Z,94.74
2022-11-25T20:12:52.224Z,94.38
2022-11-25T20:15:19.051Z,94.46
2022-11-25T20:17:53.122Z,95.02
2022-11-25T20:20:24.742Z,95.12
2022-11-25T20:22:51.155Z,95.05
2022-11-25T20:25:18.344Z,95.25
2022-11-25T20:27:44.877Z,95.08
2022-11-25T20:30:15.960Z,95.99
2022-11-25T20:32:42.456Z,96.18
2022-11-25T20:35:09.189Z,95.68
2022-11-25T20:37:50.482Z,95.42
2022-11-25T20:40:22.040Z,95.18
2022-11-25T20:42:49.581Z,94.61
2022-11-25T20:45:17.378Z,94.58
2022-11-25T20:47:44.292Z,94.33
2022-11-25T20:50:12.537Z,95.07
2022-11-25T20:52:39.407Z,94.68
2022-11-25T20:55:14.134Z,95.72
2022-11-25T20:57:40.574Z,95.56
2022-11-25T21:00:15.021Z,95.92
2022-11-25T21:02:41.648Z,96.34
2022-11-25T21:05:08.373Z,96.61
2022-11-25T21:07:34.896Z,95.56
2022-11-25T21:10:01.541Z,95.51
2022-11-25T21:12:27.991Z,95.40
2022-11-25T21:14:54.418Z,95.52
2022-11-25T21:17:20.881Z,96.02
2022-11-25T21:19:47.352Z,95.69
2022-11-25T21:22:14.657Z,95.04
2022-11-25T21:24:42.341Z,95.49
2022-11-25T21:27:14.453Z,95.75
2022-11-25T21:29:42.620Z,95.29
2022-11-25T21:32:19.186Z,94.75
2022-11-25T21:34:45.633Z,94.83
2022-11-25T21:37:12.191Z,94.61
2022-11-25T21:39:38.650Z,94.22
2022-11-25T21:42:07.239Z,94.66
2022-11-25T21:44:39.632Z,95.03
2022-11-25T21:47:13.457Z,95.52
2022-11-25T21:49:39.897Z,95.71
2022-11-25T21:52:06.364Z,96.12
2022-11-25T21:54:32.780Z,95.06
2022-11-25T21:56:59.369Z,94.24
2022-11-25T21:59:25.966Z,94.45
2022-11-25T22:01:52.875Z,94.25
2022-11-25T22:04:20.534Z,94.45
2022-11-25T22:06:47.453Z,94.41
2022-11-25T22:09:14.101Z,94.40
2022-11-25T22:11:45.293Z,94.61
2022-11-25T22:14:22.685Z,94.17
2022-11-25T22:16:49.315Z,94.00
2022-11-25T22:19:20.388Z,94.72
2022-11-25T22:21:46.867Z,94.39
2022-11-25T22:24:14.981Z,96.62
2022-11-25T22:26:41.934Z,96.29
2022-11-25T22:29:12.973Z,94.76
2022-11-25T22:31:39.629Z,95.03
2022-11-25T22:34:06.308Z,94.98
2022-11-25T22:36:36.923Z,94.92
2022-11-25T22:39:09.383Z,94.69
2022-11-25T22:41:35.880Z,94.04
2022-11-25T22:44:02.451Z,93.37
2022-11-25T22:46:29.960Z,94.38
2022-11-25T22:48:56.369Z,93.83
2022-11-25T22:51:26.123Z,94.56
2022-11-25T22:53:52.590Z,95.54
2022-11-25T22:56:20.104Z,95.79
2022-11-25T22:58:46.788Z,96.98
2022-11-25T23:01:14.892Z,96.71
2022-11-25T23:03:42.037Z,95.78
2022-11-25T23:06:12.533Z,94.73
2022-11-25T23:08:39.188Z,94.99
2022-11-25T23:11:06.205Z,96.05
2022-11-25T23:13:32.638Z,97.28
2022-11-25T23:16:00.286Z,96.30
2022-11-25T23:18:42.821Z,97.03
2022-11-25T23:21:17.896Z,97.33
2022-11-25T23:23:44.361Z,96.80
2022-11-25T23:26:11.236Z,95.16
2022-11-25T23:28:37.725Z,94.80
2022-11-25T23:31:04.347Z,95.81
2022-11-25T23:33:38.763Z,95.99
2022-11-25T23:36:11.213Z,97.10
2022-11-25T23:38:49.868Z,96.13
2022-11-25T23:41:20.629Z,95.82
2022-11-25T23:43:47.123Z,96.83
2022-11-25T23:46:14.481Z,97.73
2022-11-25T23:48:42.179Z,97.06
2022-11-25T23:51:09.384Z,98.40
2022-11-25T23:53:37.784Z,98.50
2022-11-25T23:56:04.576Z,97.64
2022-11-25T23:58:31.101Z,96.61
